createdAt,value
2023-04-10T00:00:12.276Z,1.5
2023-04-10T00:03:14.719Z,1.6
2023-04-10T00:06:12.177Z,1.6
2023-04-10T00:09:12.106Z,1.6
2023-04-10T00:12:12.070Z,1.6
2023-04-10T00:15:12.184Z,1.8
2023-04-10T00:18:12.382Z,1.8
2023-04-10T00:21:12.128Z,1.8
2023-04-10T00:24:12.111Z,1.9
2023-04-10T00:27:12.079Z,1.9
2023-04-10T00:30:12.102Z,1.9
2023-04-10T00:33:12.581Z,2
2023-04-10T00:36:12.479Z,2
2023-04-10T00:39:12.071Z,2
2023-04-10T00:42:12.281Z,2.1
2023-04-10T00:45:12.067Z,2.1
2023-04-10T00:48:12.189Z,2.2
2023-04-10T00:51:12.055Z,2.1
2023-04-10T00:54:12.045Z,2.1
2023-04-10T00:57:12.091Z,2
2023-04-10T01:00:12.103Z,2
2023-04-10T01:03:13.450Z,1.9
2023-04-10T01:06:12.059Z,1.9
2023-04-10T01:09:12.006Z,1.8
2023-04-10T01:12:12.133Z,1.8
2023-04-10T01:15:12.077Z,1.8
2023-04-10T01:18:12.489Z,1.6
2023-04-10T01:21:12.015Z,1.6
2023-04-10T01:24:12.158Z,1.6
2023-04-10T01:27:12.102Z,1.6
2023-04-10T01:30:12.151Z,1.5
2023-04-10T01:33:12.342Z,1.5
2023-04-10T01:36:12.509Z,1.5
2023-04-10T01:39:12.091Z,1.5
2023-04-10T01:42:12.104Z,1.6
2023-04-10T01:45:12.114Z,1.5
2023-04-10T01:48:12.482Z,1.5
2023-04-10T01:51:12.086Z,1.5
2023-04-10T01:54:15.091Z,1.4
2023-04-10T01:57:12.121Z,1.3
2023-04-10T02:00:12.402Z,1.3
2023-04-10T02:03:14.058Z,1.3
2023-04-10T02:06:11.971Z,1.3
2023-04-10T02:09:12.090Z,1.4
2023-04-10T02:12:12.018Z,1.4
2023-04-10T02:15:12.171Z,1.4
2023-04-10T02:18:12.442Z,1.5
2023-04-10T02:21:12.197Z,1.4
2023-04-10T02:24:12.340Z,1.4
2023-04-10T02:27:12.059Z,1.4
2023-04-10T02:30:12.077Z,1.3
2023-04-10T02:33:12.459Z,1.3
2023-04-10T02:36:12.369Z,1.3
2023-04-10T02:39:12.120Z,1.3
2023-04-10T02:42:12.110Z,1.1
2023-04-10T02:45:12.075Z,1.1
2023-04-10T02:48:12.338Z,1.1
2023-04-10T02:51:12.037Z,1.1
2023-04-10T02:54:12.022Z,1.1
2023-04-10T02:57:12.010Z,1.3
2023-04-10T03:00:12.130Z,1.3
2023-04-10T03:03:13.090Z,1.3
2023-04-10T03:06:14.485Z,1.3
2023-04-10T03:09:12.187Z,1.1
2023-04-10T03:12:12.264Z,1.1
2023-04-10T03:15:12.037Z,1
2023-04-10T03:18:12.405Z,1
2023-04-10T03:21:12.002Z,1
2023-04-10T03:24:12.139Z,1
2023-04-10T03:27:12.056Z,0.9
2023-04-10T03:30:12.153Z,0.9
2023-04-10T03:33:12.015Z,0.9
2023-04-10T03:36:12.587Z,0.9
2023-04-10T03:39:12.073Z,0.8
2023-04-10T03:42:12.012Z,0.8
2023-04-10T03:45:12.101Z,0.8
2023-04-10T03:48:12.411Z,0.9
2023-04-10T03:51:12.136Z,0.9
2023-04-10T03:54:12.152Z,1
2023-04-10T03:57:12.056Z,1.1
2023-04-10T04:00:12.125Z,1.3
2023-04-10T04:03:14.033Z,1.5
2023-04-10T04:06:12.120Z,1.5
2023-04-10T04:09:12.088Z,1.5
2023-04-10T04:12:12.012Z,1.5
2023-04-10T04:15:12.078Z,1.5
2023-04-10T04:18:12.283Z,1.5
2023-04-10T04:21:12.017Z,1.6
2023-04-10T04:24:12.067Z,1.6
2023-04-10T04:27:12.089Z,1.8
2023-04-10T04:30:12.055Z,1.8
2023-04-10T04:33:12.414Z,1.9
2023-04-10T04:36:12.414Z,1.9
2023-04-10T04:39:12.205Z,2
2023-04-10T04:42:12.183Z,2.1
2023-04-10T04:45:12.517Z,2.2
2023-04-10T04:48:12.337Z,2.4
2023-04-10T04:51:12.136Z,2.5
2023-04-10T04:54:12.113Z,2.6
2023-04-10T04:57:12.153Z,2.7
2023-04-10T05:00:12.319Z,3
2023-04-10T05:03:13.481Z,3.1
2023-04-10T05:06:12.157Z,3.2
2023-04-10T05:09:12.271Z,4
2023-04-10T05:12:12.182Z,4.4
2023-04-10T05:15:12.241Z,5
2023-04-10T05:18:12.947Z,5.1
2023-04-10T05:21:12.324Z,6.7
2023-04-10T05:24:12.194Z,8.3
2023-04-10T05:27:12.258Z,9
2023-04-10T05:30:12.258Z,10
2023-04-10T05:33:12.286Z,11
2023-04-10T05:36:12.731Z,12
2023-04-10T05:39:12.164Z,12.6
2023-04-10T05:42:12.304Z,13.3
2023-04-10T05:45:12.092Z,14.3
2023-04-10T05:48:12.283Z,14.5
2023-04-10T05:51:12.082Z,14.5
2023-04-10T05:54:12.146Z,14.5
2023-04-10T05:57:12.091Z,15.6
2023-04-10T06:00:12.497Z,16.5
2023-04-10T06:03:12.781Z,17.1
2023-04-10T06:06:12.153Z,17.6
2023-04-10T06:09:12.202Z,17.9
2023-04-10T06:12:12.279Z,18.5
2023-04-10T06:15:12.025Z,18.9
2023-04-10T06:18:12.286Z,19.3
2023-04-10T06:21:12.070Z,20.5
2023-04-10T06:24:14.890Z,21.4
2023-04-10T06:27:12.178Z,22.2
2023-04-10T06:30:12.463Z,22.4
2023-04-10T06:33:12.534Z,23.5
2023-04-10T06:36:12.686Z,23
2023-04-10T06:39:12.375Z,24.6
2023-04-10T06:42:12.347Z,26.1
2023-04-10T06:45:12.325Z,26.6
2023-04-10T06:48:12.470Z,26.8
2023-04-10T06:51:12.175Z,26.8
2023-04-10T06:54:12.206Z,27
2023-04-10T06:57:12.154Z,27.1
2023-04-10T07:00:12.765Z,27.2
2023-04-10T07:03:12.564Z,27
2023-04-10T07:06:12.381Z,26.5
2023-04-10T07:09:12.315Z,26.5
2023-04-10T07:12:12.468Z,26.1
2023-04-10T07:15:12.211Z,25.6
2023-04-10T07:18:12.712Z,25.6
2023-04-10T07:21:12.113Z,25.3
2023-04-10T07:24:12.167Z,25.8
2023-04-10T07:27:12.248Z,26.2
2023-04-10T07:30:15.136Z,27.2
2023-04-10T07:33:14.242Z,28.4
2023-04-10T07:36:12.657Z,29.5
2023-04-10T07:39:12.207Z,29.6
2023-04-10T07:42:12.247Z,28.6
2023-04-10T07:45:12.210Z,28.7
2023-04-10T07:48:12.501Z,30.6
2023-04-10T07:51:12.199Z,31.2
2023-04-10T07:54:12.157Z,31.6
2023-04-10T07:57:12.072Z,31.2
2023-04-10T08:00:12.447Z,31.1
2023-04-10T08:03:14.335Z,31.9
2023-04-10T08:06:12.142Z,32.2
2023-04-10T08:09:12.116Z,31.8
2023-04-10T08:12:12.040Z,32.2
2023-04-10T08:15:12.219Z,32.9
2023-04-10T08:18:12.472Z,33.7
2023-04-10T08:21:12.132Z,34.4
2023-04-10T08:24:12.211Z,34
2023-04-10T08:27:12.199Z,33.9
2023-04-10T08:30:12.554Z,34.7
2023-04-10T08:33:12.284Z,35.7
2023-04-10T08:36:12.265Z,36.7
2023-04-10T08:39:12.408Z,37.6
2023-04-10T08:42:12.216Z,38.1
2023-04-10T08:45:12.100Z,38.1
2023-04-10T08:48:12.422Z,38.4
2023-04-10T08:51:28.157Z,38.5
2023-04-10T08:54:12.140Z,38.5
2023-04-10T08:57:14.226Z,38.6
2023-04-10T09:00:32.505Z,38.6
2023-04-10T09:03:13.019Z,39
2023-04-10T09:06:12.154Z,39.5
2023-04-10T09:12:12.824Z,40.4
2023-04-10T09:15:12.196Z,40.6
2023-04-10T09:18:12.870Z,40.6
2023-04-10T09:21:12.126Z,40.6
2023-04-10T09:24:12.297Z,40.6
2023-04-10T09:27:12.246Z,40.6
2023-04-10T09:30:12.326Z,40.9
2023-04-10T09:33:14.816Z,40.8
2023-04-10T09:36:12.596Z,40.2
2023-04-10T09:39:12.266Z,40
2023-04-10T09:42:12.169Z,40
2023-04-10T09:45:12.289Z,40.2
2023-04-10T09:48:12.694Z,40.9
2023-04-10T09:51:12.142Z,41.2
2023-04-10T09:57:11.809Z,41.6
2023-04-10T10:00:11.895Z,41.4
2023-04-10T10:03:14.027Z,41.4
2023-04-10T10:06:11.767Z,41.6
2023-04-10T10:09:11.861Z,42.1
2023-04-10T10:12:11.731Z,41.9
2023-04-10T10:15:11.900Z,41.9
2023-04-10T10:18:12.120Z,42.1
2023-04-10T10:21:11.727Z,42.6
2023-04-10T10:24:11.692Z,42.9
2023-04-10T10:27:11.683Z,42.5
2023-04-10T10:30:38.293Z,42.5
2023-04-10T10:33:12.011Z,42.5
2023-04-10T10:36:11.733Z,42.2
2023-04-10T10:39:11.967Z,42
2023-04-10T10:42:11.780Z,42.1
2023-04-10T10:45:11.786Z,41.7
2023-04-10T10:48:12.255Z,41.7
2023-04-10T10:51:11.797Z,41.6
2023-04-10T10:54:11.753Z,41.2
2023-04-10T10:57:11.895Z,40.9
2023-04-10T11:00:11.875Z,40.8
2023-04-10T11:03:13.413Z,41
2023-04-10T11:06:11.802Z,41
2023-04-10T11:09:11.921Z,41.5
2023-04-10T11:12:11.760Z,41.7
2023-04-10T11:15:11.849Z,41.9
2023-04-10T11:18:11.782Z,42
2023-04-10T11:21:11.743Z,41.9
2023-04-10T11:24:11.773Z,41.9
2023-04-10T11:27:11.731Z,41.9
2023-04-10T11:30:11.715Z,41.9
2023-04-10T11:33:12.237Z,41.9
2023-04-10T11:36:11.986Z,42.1
2023-04-10T11:39:11.813Z,42
2023-04-10T11:42:11.676Z,42.2
2023-04-10T11:45:11.655Z,42.2
2023-04-10T11:48:12.111Z,42.1
2023-04-10T11:51:11.817Z,42.1
2023-04-10T11:54:11.777Z,42.2
2023-04-10T11:57:11.807Z,42.4
2023-04-10T12:00:12.126Z,42.4
2023-04-10T12:03:12.769Z,42.2
2023-04-10T12:06:11.915Z,42.4
2023-04-10T12:09:11.784Z,42.1
2023-04-10T12:12:11.925Z,41.9
2023-04-10T12:15:11.877Z,41.7
2023-04-10T12:18:12.197Z,41.7
2023-04-10T12:21:13.447Z,41.9
2023-04-10T12:24:11.763Z,41.9
2023-04-10T12:27:12.676Z,41.9
2023-04-10T12:30:11.791Z,42
2023-04-10T12:33:12.232Z,42.2
2023-04-10T12:36:11.893Z,42.2
2023-04-10T12:39:11.800Z,42.4
2023-04-10T12:42:11.768Z,41.4
2023-04-10T12:45:11.851Z,41.4
2023-04-10T12:48:12.164Z,41.7
2023-04-10T12:51:11.841Z,41.5
2023-04-10T12:54:11.884Z,41.2
2023-04-10T12:57:11.789Z,41.4
2023-04-10T13:00:11.968Z,40.6
2023-04-10T13:03:13.208Z,40.4
2023-04-10T13:06:11.643Z,39.5
2023-04-10T13:09:11.742Z,39.6
2023-04-10T13:12:11.649Z,40.5
2023-04-10T13:15:12.336Z,40.5
2023-04-10T13:18:15.264Z,40.8
2023-04-10T13:21:11.684Z,41.1
2023-04-10T13:24:11.786Z,41.2
2023-04-10T13:27:11.718Z,41.2
2023-04-10T13:30:11.724Z,40.4
2023-04-10T13:33:12.277Z,38.1
2023-04-10T13:36:12.275Z,36
2023-04-10T13:39:11.750Z,34.1
2023-04-10T13:42:11.714Z,33
2023-04-10T13:45:11.708Z,32.5
2023-04-10T13:48:12.089Z,32.1
2023-04-10T13:51:11.709Z,31.9
2023-04-10T13:54:11.606Z,31.5
2023-04-10T13:57:11.768Z,31.4
2023-04-10T14:00:12.021Z,31.2
2023-04-10T14:03:13.018Z,30.9
2023-04-10T14:06:11.752Z,30.5
2023-04-10T14:09:11.719Z,30.4
2023-04-10T14:12:11.778Z,30.1
2023-04-10T14:15:11.894Z,29.8
2023-04-10T14:18:11.896Z,29.5
2023-04-10T14:21:11.819Z,29.4
2023-04-10T14:24:11.775Z,29.5
2023-04-10T14:27:13.695Z,29.8
2023-04-10T14:30:11.759Z,29.8
2023-04-10T14:33:12.280Z,30.1
2023-04-10T14:36:12.260Z,30.9
2023-04-10T14:39:11.739Z,31.4
2023-04-10T14:42:11.720Z,31.6
2023-04-10T14:45:11.681Z,31.5
2023-04-10T14:48:12.363Z,31.5
2023-04-10T14:51:11.746Z,31.5
2023-04-10T14:54:11.834Z,30.6
2023-04-10T14:57:11.753Z,29.9
2023-04-10T15:00:11.958Z,29.1
2023-04-10T15:03:12.515Z,28.1
2023-04-10T15:06:11.688Z,27.2
2023-04-10T15:09:11.681Z,26.6
2023-04-10T15:12:11.750Z,26.1
2023-04-10T15:15:11.734Z,25.9
2023-04-10T15:18:12.330Z,25.8
2023-04-10T15:21:11.834Z,25.6
2023-04-10T15:24:11.713Z,25.5
2023-04-10T15:27:11.742Z,25.4
2023-04-10T15:30:11.731Z,25.1
2023-04-10T15:33:12.042Z,24.9
2023-04-10T15:36:12.332Z,24.5
2023-04-10T15:39:11.722Z,24.3
2023-04-10T15:42:11.713Z,24
2023-04-10T15:45:11.815Z,23.7
2023-04-10T15:48:11.983Z,23.6
2023-04-10T15:51:11.716Z,23.5
2023-04-10T15:54:11.744Z,23.4
2023-04-10T15:57:11.804Z,23.5
2023-04-10T16:00:12.039Z,23.9
2023-04-10T16:03:13.538Z,24.3
2023-04-10T16:06:11.820Z,24.9
2023-04-10T16:09:31.414Z,26
2023-04-10T16:12:11.683Z,27
2023-04-10T16:15:11.747Z,28.3
2023-04-10T16:18:12.013Z,28.1
2023-04-10T16:21:11.980Z,29
2023-04-10T16:24:11.739Z,29.4
2023-04-10T16:27:11.660Z,29.9
2023-04-10T16:30:11.794Z,30
2023-04-10T16:33:12.132Z,28.9
2023-04-10T16:36:11.946Z,26.5
2023-04-10T16:39:11.766Z,24.7
2023-04-10T16:42:11.657Z,23.5
2023-04-10T16:45:11.686Z,22.4
2023-04-10T16:48:12.071Z,21.4
2023-04-10T16:51:11.757Z,20.6
2023-04-10T16:54:11.750Z,20
2023-04-10T16:57:11.659Z,19.5
2023-04-10T17:00:12.426Z,19
2023-04-10T17:03:12.249Z,18.6
2023-04-10T17:06:11.758Z,18.3
2023-04-10T17:09:11.739Z,17.9
2023-04-10T17:12:12.035Z,17.5
2023-04-10T17:15:11.682Z,17.2
2023-04-10T17:18:11.984Z,16.9
2023-04-10T17:21:11.738Z,16.6
2023-04-10T17:24:12.096Z,16.4
2023-04-10T17:27:11.688Z,16.1
2023-04-10T17:30:11.905Z,16
2023-04-10T17:33:12.260Z,15.9
2023-04-10T17:36:12.529Z,16
2023-04-10T17:39:12.036Z,16
2023-04-10T17:42:11.751Z,16
2023-04-10T17:45:11.746Z,15.9
2023-04-10T17:48:12.712Z,15.6
2023-04-10T17:51:11.663Z,15.3
2023-04-10T17:54:11.789Z,14.9
2023-04-10T17:57:11.799Z,14.6
2023-04-10T18:00:11.809Z,14.3
2023-04-10T18:03:12.392Z,14
2023-04-10T18:06:11.652Z,13.9
2023-04-10T18:09:11.639Z,13.6
2023-04-10T18:12:11.768Z,13.6
2023-04-10T18:15:11.690Z,13.4
2023-04-10T18:18:12.005Z,13.3
2023-04-10T18:21:11.657Z,13
2023-04-10T18:24:11.633Z,13
2023-04-10T18:27:11.577Z,12.9
2023-04-10T18:30:11.780Z,12.8
2023-04-10T18:33:19.504Z,12.8
2023-04-10T18:36:11.961Z,12.6
2023-04-10T18:39:11.665Z,12.6
2023-04-10T18:42:11.692Z,12.6
2023-04-10T18:45:11.654Z,12.6
2023-04-10T18:48:11.809Z,12.5
2023-04-10T18:51:11.643Z,12.5
2023-04-10T18:54:11.668Z,12.4
2023-04-10T18:57:11.656Z,12.4
2023-04-10T19:00:11.842Z,12.2
2023-04-10T19:03:13.154Z,12.2
2023-04-10T19:06:11.641Z,12.1
2023-04-10T19:09:11.647Z,12
2023-04-10T19:12:11.710Z,12
2023-04-10T19:15:11.703Z,11.9
2023-04-10T19:18:12.413Z,11.9
2023-04-10T19:21:11.706Z,11.9
2023-04-10T19:24:11.678Z,11.9
2023-04-10T19:27:11.758Z,11.9
2023-04-10T19:30:11.779Z,11.9
2023-04-10T19:33:11.963Z,11.9
2023-04-10T19:36:14.786Z,11.9
2023-04-10T19:39:11.710Z,11.9
2023-04-10T19:42:11.613Z,11.9
2023-04-10T19:45:11.628Z,11.9
2023-04-10T19:48:12.344Z,11.9
2023-04-10T19:51:12.299Z,11.9
2023-04-10T19:54:11.677Z,12
2023-04-10T19:57:11.676Z,12
2023-04-10T20:00:11.791Z,12
2023-04-10T20:03:13.497Z,12.1
2023-04-10T20:06:11.868Z,12.1
2023-04-10T20:09:11.743Z,12.2
2023-04-10T20:12:11.710Z,12.2
2023-04-10T20:15:11.705Z,12.2
2023-04-10T20:18:12.120Z,12.2
2023-04-10T20:21:11.601Z,12.2
2023-04-10T20:24:11.654Z,12.2
2023-04-10T20:27:11.581Z,12.4
2023-04-10T20:30:11.788Z,12.4
2023-04-10T20:33:11.855Z,12.4
2023-04-10T20:36:11.960Z,12.2
2023-04-10T20:39:11.599Z,12.2
2023-04-10T20:42:11.701Z,12.4
2023-04-10T20:45:11.778Z,12.4
2023-04-10T20:48:12.016Z,12.4
2023-04-10T20:51:11.669Z,12.4
2023-04-10T20:54:11.651Z,12.2
2023-04-10T20:57:11.615Z,12.2
2023-04-10T21:00:11.997Z,12.2
2023-04-10T21:03:13.094Z,12.1
2023-04-10T21:06:11.804Z,12.1
2023-04-10T21:09:11.758Z,12.1
2023-04-10T21:12:11.705Z,12.1
2023-04-10T21:15:11.738Z,12.1
2023-04-10T21:18:11.748Z,12.1
2023-04-10T21:21:11.755Z,12.2
2023-04-10T21:24:11.674Z,12.2
2023-04-10T21:27:11.801Z,12.4
2023-04-10T21:30:11.748Z,12.4
2023-04-10T21:33:11.904Z,12.4
2023-04-10T21:36:11.987Z,12.5
2023-04-10T21:39:11.770Z,12.5
2023-04-10T21:42:11.748Z,12.6
2023-04-10T21:45:11.757Z,12.6
2023-04-10T21:48:12.240Z,12.8
2023-04-10T21:51:11.623Z,12.9
2023-04-10T21:54:11.681Z,13
2023-04-10T21:57:11.773Z,13.1
2023-04-10T22:00:12.109Z,13.3
2023-04-10T22:03:13.435Z,13.4
2023-04-10T22:06:11.619Z,13.5
2023-04-10T22:09:11.678Z,13.5
2023-04-10T22:12:11.600Z,13.6
2023-04-10T22:15:11.739Z,13.8
2023-04-10T22:18:11.898Z,13.8
2023-04-10T22:21:11.626Z,13.9
2023-04-10T22:24:11.626Z,13.8
2023-04-10T22:27:11.683Z,13.5
2023-04-10T22:30:15.689Z,13.4
2023-04-10T22:33:12.011Z,13.4
2023-04-10T22:36:12.125Z,13.3
2023-04-10T22:39:11.627Z,13.3
2023-04-10T22:42:11.628Z,13.3
2023-04-10T22:45:11.661Z,13.3
2023-04-10T22:48:11.951Z,13.1
2023-04-10T22:51:11.585Z,13.1
2023-04-10T22:54:11.729Z,13
2023-04-10T22:57:11.649Z,13.1
2023-04-10T23:00:12.141Z,13
2023-04-10T23:03:13.009Z,13
2023-04-10T23:06:11.622Z,12.9
2023-04-10T23:09:11.745Z,12.6
2023-04-10T23:12:11.667Z,12.5
2023-04-10T23:15:11.675Z,12.4
2023-04-10T23:18:12.072Z,12.1
2023-04-10T23:21:11.555Z,11.9
2023-04-10T23:24:11.673Z,11.8
2023-04-10T23:27:11.654Z,11.6
2023-04-10T23:30:11.697Z,11.6
2023-04-10T23:33:11.942Z,11.6
2023-04-10T23:36:11.818Z,11.6
2023-04-10T23:39:11.684Z,11.8
2023-04-10T23:42:11.600Z,11.8
2023-04-10T23:45:11.692Z,11.8
2023-04-10T23:48:11.885Z,11.5
2023-04-10T23:51:11.626Z,11.3
2023-04-10T23:54:11.665Z,10.9
2023-04-10T23:57:11.735Z,10.6
